createdAt,value
2018-08-12T00:00:17.767Z,21.69
2018-08-12T00:00:58.279Z,21.74
2018-08-12T00:01:38.806Z,21.75
2018-08-12T00:02:19.333Z,21.79
2018-08-12T00:02:59.877Z,21.79
2018-08-12T00:03:40.333Z,21.75
2018-08-12T00:04:20.855Z,21.75
2018-08-12T00:05:01.347Z,21.68
2018-08-12T00:05:41.846Z,21.69
2018-08-12T00:06:22.295Z,21.69
2018-08-12T00:07:02.826Z,21.65
2018-08-12T00:07:43.328Z,21.69
2018-08-12T00:08:23.825Z,21.69
2018-08-12T00:09:04.324Z,21.65
2018-08-12T00:09:44.850Z,21.61
2018-08-12T00:10:25.341Z,21.68
2018-08-12T00:11:05.834Z,21.67
2018-08-12T00:11:46.316Z,21.62
2018-08-12T00:12:26.824Z,21.64
2018-08-12T00:13:07.291Z,21.67
2018-08-12T00:13:47.790Z,21.59
2018-08-12T00:14:28.295Z,21.67
2018-08-12T00:15:08.813Z,21.64
2018-08-12T00:15:49.283Z,21.54
2018-08-12T00:16:29.790Z,21.53
2018-08-12T00:17:10.308Z,21.54
2018-08-12T00:17:50.805Z,21.67
2018-08-12T00:18:31.284Z,21.64
2018-08-12T00:19:11.802Z,21.65
2018-08-12T00:19:52.310Z,21.61
2018-08-12T00:20:32.834Z,21.62
2018-08-12T00:21:13.301Z,21.67
2018-08-12T00:21:53.816Z,21.59
2018-08-12T00:22:34.324Z,21.68
2018-08-12T00:23:14.786Z,21.75
2018-08-12T00:23:55.324Z,21.74
2018-08-12T00:24:35.957Z,21.69
2018-08-12T00:25:16.407Z,21.67
2018-08-12T00:25:56.917Z,21.75
2018-08-12T00:26:37.451Z,21.79
2018-08-12T00:27:18.082Z,21.8
2018-08-12T00:27:58.587Z,21.75
2018-08-12T00:28:39.084Z,21.82
2018-08-12T00:29:19.592Z,21.8
2018-08-12T00:30:00.136Z,21.8
2018-08-12T00:30:40.598Z,21.71
2018-08-12T00:31:21.105Z,21.75
2018-08-12T00:32:01.583Z,21.65
2018-08-12T00:32:42.096Z,21.68
2018-08-12T00:33:22.648Z,21.65
2018-08-12T00:34:03.077Z,21.62
2018-08-12T00:34:43.582Z,21.64
2018-08-12T00:35:24.110Z,21.52
2018-08-12T00:36:04.631Z,21.53
2018-08-12T00:36:45.108Z,21.47
2018-08-12T00:37:25.640Z,21.47
2018-08-12T00:38:06.136Z,21.53
2018-08-12T00:38:46.637Z,21.54
2018-08-12T00:39:27.160Z,21.58
2018-08-12T00:40:07.648Z,21.65
2018-08-12T00:40:48.174Z,21.62
2018-08-12T00:41:28.663Z,21.54
2018-08-12T00:42:09.130Z,21.58
2018-08-12T00:42:49.628Z,21.59
2018-08-12T00:43:30.088Z,21.53
2018-08-12T00:44:10.630Z,21.5
2018-08-12T00:44:51.158Z,21.43
2018-08-12T00:45:31.631Z,21.43
2018-08-12T00:46:12.100Z,21.31
2018-08-12T00:46:52.617Z,21.29
2018-08-12T00:47:33.131Z,21.38
2018-08-12T00:48:13.677Z,21.4
2018-08-12T00:48:54.129Z,21.43
2018-08-12T00:49:34.632Z,21.47
2018-08-12T00:50:15.125Z,21.49
2018-08-12T00:50:55.668Z,21.31
2018-08-12T00:51:36.123Z,21.29
2018-08-12T00:52:16.656Z,21.38
2018-08-12T00:52:57.138Z,21.44
2018-08-12T00:53:37.628Z,21.42
2018-08-12T00:54:18.120Z,21.42
2018-08-12T00:54:58.621Z,21.56
2018-08-12T00:55:39.132Z,21.46
2018-08-12T00:56:19.631Z,21.53
2018-08-12T00:57:00.134Z,21.61
2018-08-12T00:57:40.619Z,21.61
2018-08-12T00:58:21.096Z,21.62
2018-08-12T00:59:01.612Z,21.53
2018-08-12T00:59:42.060Z,21.52
2018-08-12T01:00:22.581Z,21.38
2018-08-12T01:01:03.035Z,21.44
2018-08-12T01:01:43.531Z,21.28
2018-08-12T01:02:24.022Z,21.28
2018-08-12T01:03:04.563Z,21.16
2018-08-12T01:03:45.097Z,21.13
2018-08-12T01:04:25.775Z,21.16
2018-08-12T01:05:06.238Z,21.27
2018-08-12T01:05:46.763Z,21.22
2018-08-12T01:06:27.223Z,21.17
2018-08-12T01:07:07.722Z,21.22
2018-08-12T01:07:48.275Z,21.19
2018-08-12T01:08:28.788Z,21.27
2018-08-12T01:09:09.288Z,21.35
2018-08-12T01:09:49.870Z,21.27
2018-08-12T01:10:30.380Z,21.32
2018-08-12T01:11:10.880Z,21.32
2018-08-12T01:11:51.360Z,21.21
2018-08-12T01:14:04.631Z,21.25
2018-08-12T01:14:45.149Z,21.21
2018-08-12T01:15:25.645Z,21.12
2018-08-12T01:16:06.150Z,21.17
2018-08-12T01:16:46.656Z,21.14
2018-08-12T01:17:27.141Z,21.14
2018-08-12T01:18:07.653Z,21.21
2018-08-12T01:18:48.157Z,21.28
2018-08-12T01:19:28.671Z,21.19
2018-08-12T01:20:09.168Z,21.16
2018-08-12T01:20:49.636Z,21.17
2018-08-12T01:21:30.126Z,21.25
2018-08-12T01:22:10.619Z,21.28
2018-08-12T01:22:51.126Z,21.21
2018-08-12T01:23:31.594Z,21.19
2018-08-12T01:24:12.046Z,21.31
2018-08-12T01:24:52.564Z,21.31
2018-08-12T01:25:33.039Z,21.24
2018-08-12T01:26:13.547Z,21.29
2018-08-12T01:26:54.020Z,21.37
2018-08-12T01:27:34.511Z,21.22
2018-08-12T01:28:15.000Z,21.32
2018-08-12T01:28:55.490Z,21.27
2018-08-12T01:29:36.028Z,21.19
2018-08-12T01:30:16.475Z,21.22
2018-08-12T01:30:57.013Z,21.19
2018-08-12T01:31:37.464Z,21.13
2018-08-12T01:32:18.012Z,21.17
2018-08-12T01:32:58.559Z,21.14
2018-08-12T01:33:39.007Z,21.06
2018-08-12T01:34:19.493Z,21.14
2018-08-12T01:35:00.066Z,21.14
2018-08-12T01:35:40.558Z,21.17
2018-08-12T01:36:21.026Z,21.13
2018-08-12T01:37:01.568Z,21.12
2018-08-12T01:37:42.958Z,21.16
2018-08-12T01:38:23.500Z,21.19
2018-08-12T01:39:03.917Z,21.31
2018-08-12T01:39:44.449Z,21.27
2018-08-12T01:40:24.952Z,21.27
2018-08-12T01:41:05.471Z,21.31
2018-08-12T01:41:45.935Z,21.29
2018-08-12T01:42:26.441Z,21.29
2018-08-12T01:43:06.921Z,21.22
2018-08-12T01:43:47.430Z,21.24
2018-08-12T01:44:27.917Z,21.06
2018-08-12T01:45:08.371Z,20.87
2018-08-12T01:45:48.888Z,20.85
2018-08-12T01:46:29.345Z,20.82
2018-08-12T01:47:09.853Z,20.84
2018-08-12T01:47:50.323Z,20.95
2018-08-12T01:48:30.845Z,21.06
2018-08-12T01:49:11.453Z,21.03
2018-08-12T01:49:51.923Z,21.07
2018-08-12T01:50:32.456Z,21.04
2018-08-12T01:51:12.971Z,21.07
2018-08-12T01:51:53.439Z,21.1
2018-08-12T01:52:33.935Z,21.13
2018-08-12T01:53:14.417Z,21.19
2018-08-12T01:53:55.022Z,21.21
2018-08-12T01:54:35.583Z,21.09
2018-08-12T01:55:16.039Z,21.12
2018-08-12T01:55:56.522Z,21.09
2018-08-12T01:56:37.036Z,21.1
2018-08-12T01:57:17.519Z,21.09
2018-08-12T01:57:58.098Z,21.06
2018-08-12T01:58:38.548Z,20.99
2018-08-12T01:59:19.072Z,21.07
2018-08-12T01:59:59.508Z,21.04
2018-08-12T02:00:40.015Z,21.12
2018-08-12T02:01:20.486Z,21.06
2018-08-12T02:02:01.058Z,21.06
2018-08-12T02:02:41.484Z,21.06
2018-08-12T02:03:21.996Z,21.07
2018-08-12T02:04:02.603Z,21.04
2018-08-12T02:04:43.105Z,21.03
2018-08-12T02:05:23.559Z,20.98
2018-08-12T02:06:04.097Z,21.04
2018-08-12T02:06:44.546Z,21.01
2018-08-12T02:07:25.040Z,20.98
2018-08-12T02:08:05.631Z,20.92
2018-08-12T02:08:46.113Z,20.97
2018-08-12T02:09:26.734Z,20.95
2018-08-12T02:10:07.196Z,20.97
2018-08-12T02:10:47.686Z,20.88
2018-08-12T02:11:28.207Z,20.94
2018-08-12T02:12:08.755Z,20.87
2018-08-12T02:12:49.195Z,20.95
2018-08-12T02:13:29.683Z,20.91
2018-08-12T02:14:10.209Z,20.8
2018-08-12T02:14:50.760Z,20.87
2018-08-12T02:15:31.290Z,20.87
2018-08-12T02:16:11.849Z,20.8
2018-08-12T02:16:52.289Z,20.84
2018-08-12T02:17:32.793Z,20.84
2018-08-12T02:18:13.290Z,20.97
2018-08-12T02:18:53.851Z,20.88
2018-08-12T02:19:34.359Z,20.94
2018-08-12T02:20:14.855Z,20.97
2018-08-12T02:20:55.378Z,20.98
2018-08-12T02:21:35.869Z,20.99
2018-08-12T02:22:16.364Z,21.03
2018-08-12T02:22:56.832Z,20.99
2018-08-12T02:23:37.326Z,21.01
2018-08-12T02:24:17.831Z,20.94
2018-08-12T02:24:58.463Z,21.06
2018-08-12T02:25:38.939Z,20.95
2018-08-12T02:26:19.426Z,20.97
2018-08-12T02:26:59.958Z,20.87
2018-08-12T02:27:40.477Z,20.97
2018-08-12T02:28:20.918Z,21.04
2018-08-12T02:29:01.434Z,20.98
2018-08-12T02:29:41.935Z,20.95
2018-08-12T02:30:22.440Z,20.89
2018-08-12T02:31:02.988Z,20.85
2018-08-12T02:31:43.465Z,20.89
2018-08-12T02:32:23.973Z,20.85
2018-08-12T02:33:04.475Z,20.85
2018-08-12T02:33:45.108Z,20.84
2018-08-12T02:34:25.565Z,20.74
2018-08-12T02:35:06.058Z,20.72
2018-08-12T02:35:46.557Z,20.77
2018-08-12T02:36:27.040Z,20.72
2018-08-12T02:37:07.538Z,20.73
2018-08-12T02:37:48.015Z,20.85
2018-08-12T02:38:28.526Z,20.85
2018-08-12T02:39:09.013Z,20.89
2018-08-12T02:39:49.491Z,20.91
2018-08-12T02:40:30.015Z,20.94
2018-08-12T02:41:10.474Z,20.99
2018-08-12T02:41:50.987Z,20.85
2018-08-12T02:42:31.479Z,20.89
2018-08-12T02:43:12.194Z,20.84
2018-08-12T02:43:52.666Z,20.88
2018-08-12T02:44:33.154Z,20.95
2018-08-12T02:45:13.651Z,20.99
2018-08-12T02:45:54.144Z,20.91
2018-08-12T02:46:34.619Z,20.88
2018-08-12T02:47:15.198Z,20.77
2018-08-12T02:47:55.655Z,20.72
2018-08-12T02:48:36.129Z,20.87
2018-08-12T02:49:16.668Z,20.8
2018-08-12T02:49:57.174Z,20.69
2018-08-12T02:50:37.604Z,20.82
2018-08-12T02:51:18.100Z,20.85
2018-08-12T02:51:58.624Z,20.74
2018-08-12T02:52:39.100Z,20.76
2018-08-12T02:53:19.647Z,20.84
2018-08-12T02:54:00.067Z,20.69
2018-08-12T02:54:40.561Z,20.82
2018-08-12T02:55:21.037Z,20.91
2018-08-12T02:56:01.576Z,20.85
2018-08-12T02:56:42.051Z,20.94
2018-08-12T02:57:22.557Z,20.82
2018-08-12T02:58:03.104Z,20.89
2018-08-12T02:58:43.601Z,20.89
2018-08-12T02:59:24.113Z,20.89
2018-08-12T03:00:04.598Z,20.98
2018-08-12T03:00:45.134Z,20.92
2018-08-12T03:01:25.622Z,20.89
2018-08-12T03:02:06.097Z,20.88
2018-08-12T03:03:55.080Z,20.85
2018-08-12T03:04:35.622Z,20.85
2018-08-12T03:05:16.071Z,20.85
2018-08-12T03:05:56.595Z,20.77
2018-08-12T03:06:37.083Z,20.82
2018-08-12T03:07:17.540Z,20.77
2018-08-12T03:07:58.001Z,20.74
2018-08-12T03:08:38.574Z,20.85
2018-08-12T03:09:19.039Z,20.82
2018-08-12T03:09:59.568Z,20.77
2018-08-12T03:10:39.989Z,20.8
2018-08-12T03:11:20.437Z,20.8
2018-08-12T03:12:00.920Z,20.87
2018-08-12T03:12:41.410Z,20.88
2018-08-12T03:13:21.892Z,20.89
2018-08-12T03:14:02.401Z,20.88
2018-08-12T03:14:42.875Z,20.85
2018-08-12T03:15:23.328Z,20.87
2018-08-12T03:16:03.821Z,20.84
2018-08-12T03:16:44.342Z,20.89
2018-08-12T03:17:24.835Z,20.89
2018-08-12T03:18:05.322Z,20.85
2018-08-12T03:18:45.812Z,20.87
2018-08-12T03:19:26.314Z,20.69
2018-08-12T03:20:06.825Z,20.72
2018-08-12T03:20:47.297Z,20.72
2018-08-12T03:21:27.797Z,20.82
2018-08-12T03:22:08.360Z,20.84
2018-08-12T03:22:48.780Z,20.89
2018-08-12T03:23:29.271Z,20.87
2018-08-12T03:24:09.783Z,20.84
2018-08-12T03:24:50.257Z,20.8
2018-08-12T03:25:30.734Z,20.76
2018-08-12T03:26:11.249Z,20.73
2018-08-12T03:26:51.730Z,20.55
2018-08-12T03:27:32.259Z,20.66
2018-08-12T03:28:12.725Z,20.52
2018-08-12T03:28:53.283Z,20.51
2018-08-12T03:29:33.712Z,20.42
2018-08-12T03:30:14.296Z,20.47
2018-08-12T03:30:54.699Z,20.5
2018-08-12T03:31:35.216Z,20.51
2018-08-12T03:32:15.749Z,20.5
2018-08-12T03:32:56.258Z,20.61
2018-08-12T03:33:36.756Z,20.66
2018-08-12T03:34:17.284Z,20.58
2018-08-12T03:34:57.807Z,20.59
2018-08-12T03:35:38.268Z,20.61
2018-08-12T03:36:18.799Z,20.55
2018-08-12T03:36:59.260Z,20.58
2018-08-12T03:37:39.734Z,20.67
2018-08-12T03:38:20.211Z,20.54
2018-08-12T03:39:00.713Z,20.58
2018-08-12T03:39:41.190Z,20.47
2018-08-12T03:40:21.692Z,20.41
2018-08-12T03:41:02.209Z,20.35
2018-08-12T03:41:42.722Z,20.33
2018-08-12T03:42:23.244Z,20.31
2018-08-12T03:43:03.731Z,20.18
2018-08-12T03:43:44.263Z,20.17
2018-08-12T03:44:24.740Z,20.17
2018-08-12T03:45:05.234Z,20.26
2018-08-12T03:45:45.700Z,20.35
2018-08-12T03:46:26.227Z,20.33
2018-08-12T03:47:06.743Z,20.38
2018-08-12T03:47:47.238Z,20.39
2018-08-12T03:48:27.749Z,20.36
2018-08-12T03:49:08.264Z,20.36
2018-08-12T03:49:48.753Z,20.47
2018-08-12T03:50:29.367Z,20.39
2018-08-12T03:51:09.852Z,20.43
2018-08-12T03:51:50.355Z,20.43
2018-08-12T03:52:30.920Z,20.42
2018-08-12T03:53:11.392Z,20.43
2018-08-12T03:53:51.857Z,20.35
2018-08-12T03:54:32.351Z,20.51
2018-08-12T03:55:13.184Z,20.48
2018-08-12T03:55:53.591Z,20.42
2018-08-12T03:56:34.147Z,20.42
2018-08-12T03:57:14.648Z,20.42
2018-08-12T03:57:55.271Z,20.43
2018-08-12T03:58:35.842Z,20.35
2018-08-12T03:59:16.315Z,20.47
2018-08-12T03:59:56.752Z,20.41
2018-08-12T04:00:37.227Z,20.33
2018-08-12T04:01:17.730Z,20.43
2018-08-12T04:01:58.233Z,20.43
2018-08-12T04:02:38.724Z,20.43
2018-08-12T04:03:19.194Z,20.57
2018-08-12T04:03:59.737Z,20.51
2018-08-12T04:04:40.182Z,20.51
2018-08-12T04:05:20.686Z,20.5
2018-08-12T04:06:01.208Z,20.48
2018-08-12T04:06:41.673Z,20.51
2018-08-12T04:07:22.189Z,20.5
2018-08-12T04:08:02.670Z,20.43
2018-08-12T04:08:43.179Z,20.33
2018-08-12T04:09:23.734Z,20.42
2018-08-12T04:10:04.188Z,20.41
2018-08-12T04:10:44.690Z,20.38
2018-08-12T04:11:25.252Z,20.36
2018-08-12T04:12:05.694Z,20.33
2018-08-12T04:12:46.199Z,20.41
2018-08-12T04:13:26.720Z,20.38
2018-08-12T04:14:07.190Z,20.41
2018-08-12T04:14:47.625Z,20.38
2018-08-12T04:15:28.195Z,20.43
2018-08-12T04:16:08.750Z,20.5
2018-08-12T04:18:06.908Z,20.48
2018-08-12T04:18:47.439Z,20.38
2018-08-12T04:19:27.930Z,20.42
2018-08-12T04:20:08.454Z,20.41
2018-08-12T04:20:48.948Z,20.41
2018-08-12T04:21:29.470Z,20.36
2018-08-12T04:22:09.934Z,20.42
2018-08-12T04:22:50.458Z,20.52
2018-08-12T04:23:30.925Z,20.51
2018-08-12T04:24:11.490Z,20.5
2018-08-12T04:24:51.903Z,20.48
2018-08-12T04:25:32.463Z,20.42
2018-08-12T04:26:12.979Z,20.47
2018-08-12T04:26:53.484Z,20.43
2018-08-12T04:27:34.005Z,20.47
2018-08-12T04:28:14.485Z,20.43
2018-08-12T04:28:54.975Z,20.48
2018-08-12T04:29:35.473Z,20.43
2018-08-12T04:30:15.949Z,20.5
2018-08-12T04:30:56.528Z,20.51
2018-08-12T04:31:37.082Z,20.55
2018-08-12T04:32:17.569Z,20.64
2018-08-12T04:32:58.188Z,20.59
2018-08-12T04:33:38.724Z,20.62
2018-08-12T04:34:19.150Z,20.62
2018-08-12T04:34:59.643Z,20.58
2018-08-12T04:35:40.112Z,20.55
2018-08-12T04:36:20.612Z,20.55
2018-08-12T04:37:01.128Z,20.58
2018-08-12T04:37:41.568Z,20.66
2018-08-12T04:38:22.119Z,20.5
2018-08-12T04:39:02.606Z,20.5
2018-08-12T04:39:43.034Z,20.47
2018-08-12T04:40:23.561Z,20.5
2018-08-12T04:41:04.015Z,20.57
2018-08-12T04:41:44.505Z,20.61
2018-08-12T04:42:25.015Z,20.55
2018-08-12T04:43:05.513Z,20.5
2018-08-12T04:43:46.041Z,20.43
2018-08-12T04:44:26.535Z,20.47
2018-08-12T04:45:07.052Z,20.55
2018-08-12T04:45:47.558Z,20.55
2018-08-12T04:46:28.070Z,20.55
2018-08-12T04:47:08.557Z,20.58
2018-08-12T04:47:49.153Z,20.59
2018-08-12T04:48:29.596Z,20.48
2018-08-12T04:49:10.093Z,20.55
2018-08-12T04:49:50.561Z,20.58
2018-08-12T04:50:31.066Z,20.57
2018-08-12T04:51:11.564Z,20.57
2018-08-12T04:51:52.018Z,20.73
2018-08-12T04:52:32.494Z,20.82
2018-08-12T04:53:12.997Z,20.62
2018-08-12T04:53:53.590Z,20.76
2018-08-12T04:54:34.054Z,20.61
2018-08-12T04:55:14.519Z,20.7
2018-08-12T04:55:55.005Z,20.69
2018-08-12T04:56:36.424Z,20.69
2018-08-12T04:57:16.957Z,20.69
2018-08-12T04:57:57.463Z,20.73
2018-08-12T04:58:37.980Z,20.74
2018-08-12T04:59:18.501Z,20.69
2018-08-12T04:59:59.003Z,20.73
2018-08-12T05:00:39.543Z,20.82
2018-08-12T05:01:20.051Z,20.72
2018-08-12T05:02:00.529Z,20.76
2018-08-12T05:02:41.001Z,20.64
2018-08-12T05:03:21.525Z,20.61
2018-08-12T05:04:02.022Z,20.74
2018-08-12T05:04:42.507Z,20.74
2018-08-12T05:05:22.990Z,20.7
2018-08-12T05:06:03.495Z,20.8
2018-08-12T05:06:43.993Z,20.84
2018-08-12T05:07:24.476Z,20.84
2018-08-12T05:08:05.103Z,20.74
2018-08-12T05:08:45.500Z,20.8
2018-08-12T05:09:25.973Z,20.87
2018-08-12T05:10:06.451Z,20.87
2018-08-12T05:10:46.931Z,20.79
2018-08-12T05:11:27.499Z,20.8
2018-08-12T05:12:07.950Z,20.82
2018-08-12T05:12:48.490Z,20.94
2018-08-12T05:13:28.948Z,20.85
2018-08-12T05:14:09.492Z,20.88
2018-08-12T05:14:49.966Z,20.91
2018-08-12T05:15:30.486Z,20.87
2018-08-12T05:16:10.953Z,20.92
2018-08-12T05:16:51.440Z,20.97
2018-08-12T05:17:31.956Z,20.98
2018-08-12T05:18:12.463Z,20.95
2018-08-12T05:18:52.980Z,21.03
2018-08-12T05:19:33.503Z,20.99
2018-08-12T05:20:13.991Z,20.99
2018-08-12T05:20:54.449Z,21.01
2018-08-12T05:21:34.993Z,21.07
2018-08-12T05:22:15.454Z,21.07
2018-08-12T05:22:55.956Z,20.95
2018-08-12T05:23:36.464Z,20.99
2018-08-12T05:24:16.985Z,20.94
2018-08-12T05:24:57.500Z,20.88
2018-08-12T05:25:37.980Z,20.94
2018-08-12T05:26:18.506Z,20.88
2018-08-12T05:26:58.995Z,20.94
2018-08-12T05:27:39.452Z,21.03
2018-08-12T05:28:19.952Z,20.89
2018-08-12T05:29:00.435Z,20.94
2018-08-12T05:31:13.773Z,21.04
2018-08-12T05:31:54.297Z,21.07
2018-08-12T05:32:34.894Z,21.09
2018-08-12T05:33:15.350Z,21.16
2018-08-12T05:33:55.865Z,21.19
2018-08-12T05:34:36.340Z,21.12
2018-08-12T05:35:16.825Z,21.16
2018-08-12T05:35:57.316Z,21.13
2018-08-12T05:36:37.805Z,21.1
2018-08-12T05:37:18.313Z,20.99
2018-08-12T05:37:58.850Z,21.06
2018-08-12T05:38:39.314Z,21.04
2018-08-12T05:39:19.802Z,21.03
2018-08-12T05:40:00.296Z,21.16
2018-08-12T05:40:40.811Z,21.12
2018-08-12T05:41:21.352Z,21.17
2018-08-12T05:42:01.841Z,21.17
2018-08-12T05:42:42.331Z,21.13
2018-08-12T05:43:22.834Z,21.16
2018-08-12T05:44:03.358Z,21.22
2018-08-12T05:44:43.791Z,21.22
2018-08-12T05:45:24.309Z,21.31
2018-08-12T05:46:04.839Z,21.35
2018-08-12T05:46:45.337Z,21.37
2018-08-12T05:47:25.856Z,21.38
2018-08-12T05:48:06.359Z,21.47
2018-08-12T05:48:46.913Z,21.79
2018-08-12T05:49:27.350Z,21.74
2018-08-12T05:50:07.798Z,21.75
2018-08-12T05:50:48.331Z,21.98
2018-08-12T05:51:28.894Z,22.1
2018-08-12T05:52:09.326Z,22.35
2018-08-12T05:52:49.799Z,22.39
2018-08-12T05:53:30.322Z,22.51
2018-08-12T05:54:10.843Z,22.54
2018-08-12T05:54:51.376Z,22.57
2018-08-12T05:55:31.803Z,22.58
2018-08-12T05:56:12.344Z,22.49
2018-08-12T05:56:52.820Z,22.58
2018-08-12T05:57:33.328Z,22.58
2018-08-12T05:58:19.940Z,22.52
2018-08-12T05:59:00.436Z,22.55
2018-08-12T05:59:41.121Z,22.6
2018-08-12T06:00:21.607Z,22.6
2018-08-12T06:02:14.733Z,22.57
2018-08-12T06:02:55.345Z,22.33
2018-08-12T06:03:35.765Z,22.33
2018-08-12T06:04:16.269Z,22.3
2018-08-12T06:04:56.767Z,22.28
2018-08-12T06:05:37.260Z,22.3
2018-08-12T06:06:17.814Z,22.15
2018-08-12T06:06:58.274Z,22.21
2018-08-12T06:07:38.829Z,22.2
2018-08-12T06:08:19.235Z,22.21
2018-08-12T06:08:59.840Z,22.17
2018-08-12T06:09:40.298Z,22.1
2018-08-12T06:10:20.724Z,22.15
2018-08-12T06:11:01.197Z,22.17
2018-08-12T06:11:41.661Z,22.17
2018-08-12T06:12:22.166Z,22.1
2018-08-12T06:13:02.978Z,22.17
2018-08-12T06:13:43.529Z,22.18
2018-08-12T06:14:23.967Z,22.31
2018-08-12T06:15:04.524Z,22.18
2018-08-12T06:15:45.137Z,22.18
2018-08-12T06:16:25.603Z,22.18
2018-08-12T06:17:06.060Z,22.27
2018-08-12T06:17:50.112Z,22.33
2018-08-12T06:18:30.685Z,22.33
2018-08-12T06:19:11.101Z,22.4
2018-08-12T06:19:51.576Z,22.51
2018-08-12T06:20:32.048Z,22.54
2018-08-12T06:21:12.536Z,22.52
2018-08-12T06:21:53.055Z,22.45
2018-08-12T06:22:33.539Z,22.42
2018-08-12T06:23:14.019Z,22.51
2018-08-12T06:23:54.502Z,22.55
2018-08-12T06:24:35.033Z,22.58
2018-08-12T06:25:15.490Z,22.4
2018-08-12T06:25:56.006Z,22.37
2018-08-12T06:26:36.473Z,22.33
2018-08-12T06:27:16.991Z,22.37
2018-08-12T06:27:57.466Z,22.43
2018-08-12T06:28:37.981Z,22.37
2018-08-12T06:29:18.462Z,22.33
2018-08-12T06:29:58.951Z,22.33
2018-08-12T06:30:39.470Z,22.3
2018-08-12T06:31:20.029Z,22.39
2018-08-12T06:32:00.550Z,22.45
2018-08-12T06:32:41.038Z,22.4
2018-08-12T06:33:21.546Z,22.43
2018-08-12T06:34:02.046Z,22.49
2018-08-12T06:34:42.555Z,22.37
2018-08-12T06:35:23.078Z,22.42
2018-08-12T06:36:03.552Z,22.31
2018-08-12T06:36:44.050Z,22.31
2018-08-12T06:37:24.561Z,22.43
2018-08-12T06:38:05.034Z,22.43
2018-08-12T06:38:45.532Z,22.43
2018-08-12T06:39:26.031Z,22.35
2018-08-12T06:40:06.540Z,22.28
2018-08-12T06:40:47.051Z,22.31
2018-08-12T06:41:27.530Z,22.28
2018-08-12T06:42:07.993Z,22.3
2018-08-12T06:42:48.537Z,22.31
2018-08-12T06:43:29.005Z,22.37
2018-08-12T06:44:09.506Z,22.36
2018-08-12T06:44:50.015Z,22.33
2018-08-12T06:45:30.550Z,22.28
2018-08-12T06:46:11.097Z,22.28
2018-08-12T06:46:51.584Z,22.47
2018-08-12T06:47:32.115Z,22.54
2018-08-12T06:48:12.629Z,22.51
2018-08-12T06:48:53.134Z,22.64
2018-08-12T06:49:33.637Z,22.61
2018-08-12T06:50:14.162Z,22.73
2018-08-12T06:50:54.661Z,22.83
2018-08-12T06:51:35.135Z,22.97
2018-08-12T06:52:15.631Z,23.12
2018-08-12T06:52:56.174Z,23.23
2018-08-12T06:53:36.687Z,23.33
2018-08-12T06:54:17.196Z,23.42
2018-08-12T06:54:57.653Z,23.42
2018-08-12T06:55:38.196Z,23.54
2018-08-12T06:56:18.672Z,23.55
2018-08-12T06:56:59.166Z,23.69
2018-08-12T06:57:39.638Z,23.87
2018-08-12T06:58:20.150Z,23.93
2018-08-12T06:59:00.601Z,24
2018-08-12T06:59:41.065Z,24.09
2018-08-12T07:00:21.680Z,24.09
2018-08-12T07:01:02.083Z,24.12
2018-08-12T07:01:42.614Z,24.16
2018-08-12T07:02:23.092Z,24.08
2018-08-12T07:03:03.619Z,24.1
2018-08-12T07:03:44.123Z,24.1
2018-08-12T07:04:24.572Z,24.21
2018-08-12T07:05:05.099Z,24.24
2018-08-12T07:05:45.594Z,24.27
2018-08-12T07:06:26.056Z,24.35
2018-08-12T07:07:06.627Z,24.45
2018-08-12T07:07:47.102Z,24.45
2018-08-12T07:08:27.581Z,24.47
2018-08-12T07:09:08.056Z,24.55
2018-08-12T07:09:48.574Z,24.67
2018-08-12T07:10:29.017Z,24.65
2018-08-12T07:11:09.525Z,24.69
2018-08-12T07:11:50.032Z,24.53
2018-08-12T07:12:30.499Z,24.53
2018-08-12T07:13:10.998Z,24.58
2018-08-12T07:13:51.521Z,24.68
2018-08-12T07:14:31.993Z,24.5
2018-08-12T07:15:12.531Z,24.6
2018-08-12T07:15:53.006Z,24.57
2018-08-12T07:16:33.527Z,24.5
2018-08-12T07:17:14.045Z,24.62
2018-08-12T07:17:54.534Z,24.62
2018-08-12T07:18:35.081Z,24.73
2018-08-12T07:19:15.539Z,24.8
2018-08-12T07:19:56.027Z,24.77
2018-08-12T07:20:36.541Z,24.93
2018-08-12T07:21:17.181Z,24.91
2018-08-12T07:21:57.737Z,24.98
2018-08-12T07:22:38.232Z,25.02
2018-08-12T07:23:18.745Z,24.96
2018-08-12T07:23:59.234Z,25
2018-08-12T07:24:39.726Z,25.15
2018-08-12T07:25:20.240Z,25.13
2018-08-12T07:26:00.707Z,25.03
2018-08-12T07:26:41.214Z,25.14
2018-08-12T07:27:21.761Z,25.1
2018-08-12T07:28:02.258Z,25.17
2018-08-12T07:28:42.698Z,25.2
2018-08-12T07:29:23.136Z,25.2
2018-08-12T07:30:03.623Z,25.18
2018-08-12T07:30:44.135Z,25.27
2018-08-12T07:31:24.668Z,25.28
2018-08-12T07:32:05.123Z,25.21
2018-08-12T07:32:45.683Z,25.21
2018-08-12T07:33:26.153Z,25.21
2018-08-12T07:34:06.637Z,25.2
2018-08-12T07:34:47.093Z,25.21
2018-08-12T07:35:27.686Z,25.18
2018-08-12T07:36:08.202Z,25.27
2018-08-12T07:36:48.674Z,25.2
2018-08-12T07:37:29.119Z,25.18
2018-08-12T07:38:09.624Z,25.33
2018-08-12T07:38:50.171Z,25.3
2018-08-12T07:39:30.676Z,25.27
2018-08-12T07:40:11.161Z,25.3
2018-08-12T07:52:18.187Z,25.54
2018-08-12T07:52:58.714Z,25.43
2018-08-12T07:53:39.266Z,25.52
2018-08-12T07:54:19.792Z,25.57
2018-08-12T07:55:00.320Z,25.52
2018-08-12T07:55:40.895Z,25.46
2018-08-12T07:56:21.379Z,25.46
2018-08-12T07:57:01.894Z,25.5
2018-08-12T07:57:42.413Z,25.62
2018-08-12T07:58:22.955Z,25.62
2018-08-12T07:59:03.526Z,25.58
2018-08-12T07:59:44.067Z,25.58
2018-08-12T08:00:24.616Z,25.64
2018-08-12T08:01:05.216Z,25.69
2018-08-12T08:01:45.619Z,25.65
2018-08-12T08:02:26.104Z,25.7
2018-08-12T08:03:06.636Z,25.64
2018-08-12T08:03:47.129Z,25.62
2018-08-12T08:04:27.617Z,25.51
2018-08-12T08:05:08.120Z,25.54
2018-08-12T08:05:48.636Z,25.51
2018-08-12T08:06:29.187Z,25.55
2018-08-12T08:07:09.703Z,25.52
2018-08-12T08:07:50.172Z,25.51
2018-08-12T08:08:30.632Z,25.5
2018-08-12T08:09:11.178Z,25.61
2018-08-12T08:09:51.685Z,25.64
2018-08-12T08:10:32.200Z,25.61
2018-08-12T08:11:12.699Z,25.55
2018-08-12T08:11:53.166Z,25.54
2018-08-12T08:12:33.786Z,25.46
2018-08-12T08:13:14.144Z,25.55
2018-08-12T08:13:54.678Z,25.42
2018-08-12T08:14:35.233Z,25.36
2018-08-12T08:15:15.727Z,25.27
2018-08-12T08:15:56.254Z,25.21
2018-08-12T08:16:36.778Z,25.24
2018-08-12T08:17:17.300Z,25.25
2018-08-12T08:17:57.824Z,25.18
2018-08-12T08:18:38.332Z,25.17
2018-08-12T08:19:18.853Z,25.17
2018-08-12T08:19:59.421Z,25.27
2018-08-12T08:20:39.914Z,25.18
2018-08-12T08:21:20.459Z,25.25
2018-08-12T08:22:00.934Z,25.27
2018-08-12T08:22:41.470Z,25.23
2018-08-12T08:23:21.957Z,25.3
2018-08-12T08:24:03.261Z,25.18
2018-08-12T08:24:43.758Z,25.33
2018-08-12T08:25:24.387Z,25.35
2018-08-12T08:26:04.798Z,25.33
2018-08-12T08:26:45.292Z,25.18
2018-08-12T08:27:26.269Z,25.18
2018-08-12T08:28:06.753Z,25.23
2018-08-12T08:28:47.267Z,25.21
2018-08-12T08:29:27.896Z,25.32
2018-08-12T08:30:08.387Z,25.28
2018-08-12T08:30:48.904Z,25.27
2018-08-12T08:31:29.485Z,25.23
2018-08-12T08:32:09.981Z,25.23
2018-08-12T08:32:50.467Z,25.27
2018-08-12T08:33:31.014Z,25.13
2018-08-12T08:34:11.562Z,24.96
2018-08-12T08:34:52.127Z,24.96
2018-08-12T08:35:32.701Z,25.08
2018-08-12T08:36:13.201Z,25.02
2018-08-12T08:36:53.702Z,25.1
2018-08-12T08:37:34.176Z,25.2
2018-08-12T08:38:14.780Z,25.2
2018-08-12T08:38:55.264Z,25.18
2018-08-12T08:39:35.775Z,25.15
2018-08-12T08:40:16.376Z,25.25
2018-08-12T08:40:57.100Z,25.27
2018-08-12T08:41:37.285Z,25.18
2018-08-12T08:42:17.778Z,25.21
2018-08-12T08:42:58.304Z,25.2
2018-08-12T08:43:38.881Z,25.27
2018-08-12T08:44:19.317Z,25.25
2018-08-12T08:44:59.905Z,25.24
2018-08-12T08:45:40.345Z,25.3
2018-08-12T08:46:20.832Z,25.25
2018-08-12T08:47:01.316Z,25.21
2018-08-12T08:47:41.801Z,25.25
2018-08-12T08:48:23.077Z,25.27
2018-08-12T08:49:03.912Z,25.25
2018-08-12T08:49:44.658Z,25.33
2018-08-12T08:50:25.159Z,25.25
2018-08-12T08:51:05.634Z,25.2
2018-08-12T08:51:46.200Z,25.21
2018-08-12T08:52:26.662Z,25.23
2018-08-12T08:53:07.189Z,25.3
2018-08-12T08:53:47.683Z,25.32
2018-08-12T08:54:28.215Z,25.21
2018-08-12T08:55:09.445Z,25.33
2018-08-12T08:55:50.336Z,25.3
2018-08-12T08:56:30.793Z,25.38
2018-08-12T08:57:11.288Z,25.32
2018-08-12T08:57:51.912Z,25.32
2018-08-12T08:58:32.452Z,25.33
2018-08-12T08:59:13.040Z,25.38
2018-08-12T08:59:53.481Z,25.3
2018-08-12T09:00:34.100Z,25.3
2018-08-12T09:01:14.611Z,25.42
2018-08-12T09:01:55.152Z,25.4